createdAt,value
2018-07-14T00:02:07.237Z,97.80
2018-07-14T00:04:36.348Z,97.90
2018-07-14T00:07:05.527Z,99.90
2018-07-14T00:09:35.105Z,99.90
2018-07-14T00:12:04.284Z,99.90
2018-07-14T00:17:02.499Z,99.90
2018-07-14T00:19:31.597Z,98.10
2018-07-14T00:22:00.679Z,97.70
2018-07-14T00:24:30.184Z,99.90
2018-07-14T00:26:59.275Z,99.90
2018-07-14T00:29:28.395Z,99.90
2018-07-14T00:31:57.665Z,99.90
2018-07-14T00:34:26.748Z,99.90
2018-07-14T00:41:53.492Z,99.90
2018-07-14T00:44:22.592Z,99.90
2018-07-14T00:46:52.003Z,99.90
2018-07-14T00:51:49.801Z,99.90
2018-07-14T00:54:19.313Z,99.90
2018-07-14T00:56:48.425Z,99.90
2018-07-14T00:59:17.491Z,99.90
2018-07-14T01:01:46.824Z,99.90
2018-07-14T01:04:15.922Z,99.90
2018-07-14T01:06:45.022Z,99.90
2018-07-14T01:09:14.417Z,99.90
2018-07-14T01:11:43.931Z,99.90
2018-07-14T01:14:13.207Z,99.90
2018-07-14T01:16:42.617Z,99.90
2018-07-14T01:19:11.709Z,99.90
2018-07-14T01:21:40.814Z,99.90
2018-07-14T01:24:10.237Z,99.90
2018-07-14T01:26:43.397Z,99.90
2018-07-14T01:29:13.603Z,99.90
2018-07-14T01:31:42.974Z,99.90
2018-07-14T01:34:12.017Z,99.90
2018-07-14T01:36:41.215Z,99.90
2018-07-14T01:39:10.306Z,99.90
2018-07-14T01:41:39.394Z,99.90
2018-07-14T01:44:08.559Z,99.90
2018-07-14T01:46:37.657Z,99.90
2018-07-14T01:51:35.617Z,99.90
2018-07-14T01:54:04.754Z,99.90
2018-07-14T01:56:33.873Z,99.90
2018-07-14T01:59:03.195Z,99.90
2018-07-14T02:01:32.356Z,99.90
2018-07-14T02:04:01.465Z,99.90
2018-07-14T02:06:30.869Z,99.90
2018-07-14T02:09:00.012Z,99.90
2018-07-14T02:11:29.149Z,99.90
2018-07-14T02:16:27.465Z,99.90
2018-07-14T02:18:56.566Z,99.90
2018-07-14T02:21:25.991Z,99.90
2018-07-14T02:23:55.117Z,99.90
2018-07-14T02:26:24.209Z,99.90
2018-07-14T02:28:53.533Z,99.90
2018-07-14T02:31:22.658Z,99.90
2018-07-14T02:33:51.721Z,99.90
2018-07-14T02:36:20.954Z,99.90
2018-07-14T02:38:50.091Z,99.90
2018-07-14T02:41:19.179Z,99.90
2018-07-14T02:43:49.120Z,99.90
2018-07-14T02:48:46.828Z,99.90
2018-07-14T02:51:16.012Z,99.90
2018-07-14T02:53:45.150Z,99.90
2018-07-14T02:56:14.243Z,99.90
2018-07-14T02:58:43.636Z,99.90
2018-07-14T03:01:12.698Z,99.90
2018-07-14T03:03:41.767Z,99.90
2018-07-14T03:06:10.941Z,99.90
2018-07-14T03:08:39.995Z,99.90
2018-07-14T03:11:09.190Z,99.90
2018-07-14T03:13:38.549Z,99.90
2018-07-14T03:16:08.004Z,99.90
2018-07-14T03:18:37.718Z,99.90
2018-07-14T03:21:06.964Z,99.90
2018-07-14T03:23:36.131Z,99.90
2018-07-14T03:26:05.588Z,99.90
2018-07-14T03:28:34.782Z,99.90
2018-07-14T03:31:03.838Z,99.90
2018-07-14T03:33:32.996Z,99.90
2018-07-14T03:36:02.079Z,99.90
2018-07-14T03:38:31.152Z,99.90
2018-07-14T03:41:00.326Z,99.90
2018-07-14T03:43:29.454Z,99.90
2018-07-14T03:45:58.556Z,99.90
2018-07-14T03:48:27.728Z,99.90
2018-07-14T03:50:56.818Z,99.90
2018-07-14T03:53:25.914Z,99.90
2018-07-14T03:55:55.338Z,99.90
2018-07-14T03:58:24.468Z,99.90
2018-07-14T04:00:53.557Z,99.90
2018-07-14T04:03:22.990Z,99.90
2018-07-14T04:05:52.093Z,99.90
2018-07-14T04:08:21.176Z,99.90
2018-07-14T04:10:50.568Z,99.90
2018-07-14T04:13:19.648Z,99.90
2018-07-14T04:15:48.716Z,99.90
2018-07-14T04:18:18.360Z,99.90
2018-07-14T04:20:47.418Z,99.90
2018-07-14T04:23:16.486Z,99.90
2018-07-14T04:25:45.812Z,99.90
2018-07-14T04:30:43.592Z,99.90
2018-07-14T04:33:12.818Z,99.90
2018-07-14T04:35:41.878Z,99.90
2018-07-14T04:38:11.002Z,99.90
2018-07-14T04:40:40.580Z,99.90
2018-07-14T04:43:09.626Z,99.90
2018-07-14T04:45:38.711Z,99.90
2018-07-14T04:48:08.193Z,99.90
2018-07-14T04:50:37.330Z,99.90
2018-07-14T04:53:07.046Z,99.90
2018-07-14T04:55:36.272Z,99.90
2018-07-14T04:58:05.366Z,99.90
2018-07-14T05:00:34.454Z,99.90
2018-07-14T05:03:03.622Z,99.90
2018-07-14T05:05:32.719Z,99.90
2018-07-14T05:08:01.819Z,99.90
2018-07-14T05:10:31.308Z,99.90
2018-07-14T05:13:00.407Z,99.90
2018-07-14T05:15:29.487Z,99.90
2018-07-14T05:17:58.902Z,99.90
2018-07-14T05:20:28.388Z,99.90
2018-07-14T05:22:57.490Z,99.90
2018-07-14T05:25:26.682Z,99.90
2018-07-14T05:27:55.837Z,99.90
2018-07-14T05:32:54.085Z,99.90
2018-07-14T05:35:23.222Z,99.90
2018-07-14T05:37:52.511Z,99.90
2018-07-14T05:40:21.988Z,99.90
2018-07-14T05:42:51.193Z,99.90
2018-07-14T05:45:20.287Z,99.90
2018-07-14T05:47:49.636Z,99.90
2018-07-14T05:50:18.737Z,99.90
2018-07-14T05:52:47.878Z,99.90
2018-07-14T05:55:17.520Z,99.90
2018-07-14T05:57:47.703Z,99.90
2018-07-14T06:00:16.966Z,99.90
2018-07-14T06:02:46.301Z,99.90
2018-07-14T06:05:15.473Z,99.90
2018-07-14T06:07:44.589Z,99.90
2018-07-14T06:10:14.180Z,99.90
2018-07-14T06:12:43.337Z,99.90
2018-07-14T06:15:12.498Z,99.90
2018-07-14T06:17:42.077Z,99.90
2018-07-14T06:20:11.533Z,99.90
2018-07-14T06:22:40.843Z,99.90
2018-07-14T06:25:10.317Z,99.90
2018-07-14T06:27:39.387Z,99.90
2018-07-14T06:30:09.182Z,99.90
2018-07-14T06:32:38.568Z,99.90
2018-07-14T06:37:36.395Z,99.90
2018-07-14T06:42:34.666Z,99.90
2018-07-14T06:45:03.877Z,99.90
2018-07-14T06:47:33.100Z,99.90
2018-07-14T06:50:02.298Z,99.90
2018-07-14T06:52:31.402Z,99.90
2018-07-14T06:55:00.660Z,99.90
2018-07-14T06:57:29.749Z,99.90
2018-07-14T06:59:58.884Z,99.90
2018-07-14T07:02:28.051Z,99.90
2018-07-14T07:04:57.468Z,99.90
2018-07-14T07:07:26.589Z,99.90
2018-07-14T07:09:55.853Z,99.90
2018-07-14T07:12:24.935Z,99.90
2018-07-14T07:14:54.022Z,99.90
2018-07-14T07:17:23.496Z,99.90
2018-07-14T07:22:21.321Z,99.90
2018-07-14T07:24:50.942Z,99.90
2018-07-14T07:27:20.054Z,99.90
2018-07-14T07:29:49.222Z,99.90
2018-07-14T07:32:18.496Z,99.90
2018-07-14T07:34:47.654Z,99.90
2018-07-14T07:37:16.878Z,99.90
2018-07-14T07:39:46.082Z,99.90
2018-07-14T07:42:15.230Z,99.90
2018-07-14T07:44:44.420Z,99.90
2018-07-14T07:47:13.606Z,99.90
2018-07-14T07:49:42.733Z,99.90
2018-07-14T07:52:12.942Z,99.90
2018-07-14T07:54:42.237Z,99.90
2018-07-14T07:57:12.312Z,99.90
2018-07-14T07:59:41.420Z,99.90
2018-07-14T08:02:11.219Z,99.90
2018-07-14T08:04:40.504Z,99.90
2018-07-14T08:09:39.505Z,99.90
2018-07-14T08:12:09.405Z,99.90
2018-07-14T08:14:38.588Z,99.90
2018-07-14T08:17:07.856Z,99.90
2018-07-14T08:19:36.939Z,99.90
2018-07-14T08:22:06.176Z,99.90
2018-07-14T08:24:35.780Z,99.90
2018-07-14T08:27:04.908Z,99.90
2018-07-14T08:29:34.102Z,99.90
2018-07-14T08:32:03.382Z,99.90
2018-07-14T08:34:32.598Z,98.80
2018-07-14T08:37:02.455Z,99.20
2018-07-14T08:39:31.748Z,98.70
2018-07-14T08:42:01.566Z,98.60
2018-07-14T08:44:30.710Z,98.50
2018-07-14T08:47:00.214Z,98.10
2018-07-14T08:49:29.409Z,98.20
2018-07-14T08:51:58.590Z,97.80
2018-07-14T08:54:28.120Z,99.90
2018-07-14T08:56:57.400Z,98.70
2018-07-14T08:59:26.544Z,98.80
2018-07-14T09:01:55.988Z,98.10
2018-07-14T09:04:25.202Z,97.80
2018-07-14T09:06:55.080Z,98.20
2018-07-14T09:09:24.593Z,97.00
2018-07-14T09:11:53.738Z,97.80
2018-07-14T09:14:22.844Z,97.80
2018-07-14T09:16:51.984Z,96.90
2018-07-14T09:19:21.103Z,97.90
2018-07-14T09:21:50.194Z,97.30
2018-07-14T09:24:19.410Z,95.80
2018-07-14T09:26:48.609Z,95.40
2018-07-14T09:29:17.720Z,95.30
2018-07-14T09:31:47.010Z,95.30
2018-07-14T09:34:16.094Z,94.40
2018-07-14T09:36:45.211Z,94.30
2018-07-14T09:39:14.478Z,94.30
2018-07-14T09:41:43.586Z,92.80
2018-07-14T09:44:12.734Z,92.90
2018-07-14T09:46:41.969Z,93.50
2018-07-14T09:49:11.086Z,91.30
2018-07-14T09:51:40.263Z,90.40
2018-07-14T09:54:09.542Z,85.70
2018-07-14T09:56:39.496Z,82.90
2018-07-14T09:59:09.064Z,83.20
2018-07-14T10:01:38.436Z,78.80
2018-07-14T10:04:07.587Z,82.20
2018-07-14T10:06:36.682Z,84.20
2018-07-14T10:09:06.552Z,85.30
2018-07-14T10:11:36.198Z,78.70
2018-07-14T10:14:06.062Z,72.40
2018-07-14T10:19:03.966Z,78.80
2018-07-14T10:21:35.906Z,74.50
2018-07-14T10:26:34.311Z,70.30
2018-07-14T10:29:03.648Z,70.80
2018-07-14T10:31:33.449Z,72.10
2018-07-14T10:34:02.682Z,71.10
2018-07-14T10:39:01.305Z,70.00
2018-07-14T10:41:36.740Z,66.40
2018-07-14T10:44:07.054Z,67.20
2018-07-14T10:46:37.137Z,66.90
2018-07-14T10:49:06.694Z,66.20
2018-07-14T10:51:36.018Z,65.10
2018-07-14T10:54:06.365Z,63.80
2018-07-14T10:56:35.988Z,65.60
2018-07-14T10:59:05.478Z,69.90
2018-07-14T11:01:35.827Z,68.30
2018-07-14T11:04:05.460Z,66.80
2018-07-14T11:06:35.013Z,65.30
2018-07-14T11:09:05.014Z,63.10
2018-07-14T11:11:35.216Z,62.20
2018-07-14T11:14:04.634Z,62.50
2018-07-14T11:16:34.066Z,61.60
2018-07-14T11:19:03.330Z,60.50
2018-07-14T11:21:32.450Z,60.80
2018-07-14T11:24:01.513Z,59.80
2018-07-14T11:26:30.936Z,62.60
2018-07-14T11:29:00.051Z,60.70
2018-07-14T11:31:29.688Z,61.00
2018-07-14T11:33:59.228Z,62.80
2018-07-14T11:36:28.310Z,62.20
2018-07-14T11:38:57.374Z,61.80
2018-07-14T11:41:26.534Z,60.00
2018-07-14T11:43:55.666Z,62.50
2018-07-14T11:46:24.737Z,63.80
2018-07-14T11:48:53.912Z,63.80
2018-07-14T11:51:23.082Z,59.70
2018-07-14T11:56:21.004Z,59.10
2018-07-14T11:58:50.157Z,60.60
2018-07-14T12:03:48.816Z,60.70
2018-07-14T12:06:17.924Z,58.40
2018-07-14T12:08:46.998Z,57.90
2018-07-14T12:11:16.290Z,59.80
2018-07-14T12:13:45.478Z,59.10
2018-07-14T12:16:14.721Z,57.60
2018-07-14T12:18:44.168Z,56.80
2018-07-14T12:23:42.185Z,57.90
2018-07-14T12:26:11.701Z,57.40
2018-07-14T12:28:40.777Z,58.30
2018-07-14T12:31:09.871Z,57.60
2018-07-14T12:33:39.150Z,58.00
2018-07-14T12:36:08.256Z,61.00
2018-07-14T12:38:37.331Z,56.70
2018-07-14T12:43:35.246Z,58.70
2018-07-14T12:46:04.430Z,56.20
2018-07-14T12:48:33.659Z,56.70
2018-07-14T12:51:02.850Z,54.10
2018-07-14T12:53:32.481Z,55.40
2018-07-14T12:56:02.109Z,56.50
2018-07-14T13:00:59.925Z,55.20
2018-07-14T13:03:29.149Z,56.60
2018-07-14T13:05:58.219Z,55.30
2018-07-14T13:08:27.321Z,57.90
2018-07-14T13:10:56.636Z,55.80
2018-07-14T13:13:25.723Z,56.50
2018-07-14T13:15:54.856Z,55.40
2018-07-14T13:18:24.373Z,54.10
2018-07-14T13:20:53.513Z,56.00
2018-07-14T13:23:22.607Z,54.30
2018-07-14T13:25:52.175Z,53.70
2018-07-14T13:30:49.975Z,52.90
2018-07-14T13:33:19.301Z,52.90
2018-07-14T13:35:48.491Z,53.00
2018-07-14T13:38:17.553Z,52.40
2018-07-14T13:40:46.701Z,52.90
2018-07-14T13:43:15.871Z,53.20
2018-07-14T13:45:45.014Z,51.30
2018-07-14T13:48:14.279Z,52.30
2018-07-14T13:50:43.443Z,50.80
2018-07-14T13:53:12.569Z,50.00
2018-07-14T13:55:41.898Z,52.00
2018-07-14T13:58:11.011Z,51.50
2018-07-14T14:00:40.152Z,51.70
2018-07-14T14:03:09.493Z,51.80
2018-07-14T14:05:38.649Z,52.30
2018-07-14T14:08:08.773Z,50.80
2018-07-14T14:10:37.987Z,50.30
2018-07-14T14:13:07.208Z,50.20
2018-07-14T14:15:36.334Z,48.60
2018-07-14T14:20:34.549Z,49.70
2018-07-14T14:23:03.648Z,48.80
2018-07-14T14:25:32.984Z,49.00
2018-07-14T14:28:02.076Z,49.00
2018-07-14T14:30:31.162Z,48.70
2018-07-14T14:33:00.522Z,50.70
2018-07-14T14:35:29.623Z,49.00
2018-07-14T14:37:58.724Z,49.10
2018-07-14T14:40:28.049Z,47.90
2018-07-14T14:42:57.209Z,49.60
2018-07-14T14:47:55.821Z,49.10
2018-07-14T14:50:24.939Z,50.10
2018-07-14T14:52:54.471Z,49.50
2018-07-14T14:55:23.626Z,50.80
2018-07-14T14:57:52.746Z,50.60
2018-07-14T15:00:22.208Z,48.70
2018-07-14T15:07:48.777Z,49.70
2018-07-14T15:10:17.871Z,49.00
2018-07-14T15:12:47.020Z,49.20
2018-07-14T15:15:16.185Z,50.10
2018-07-14T15:17:45.314Z,49.20
2018-07-14T15:20:14.464Z,49.00
2018-07-14T15:22:44.289Z,50.60
2018-07-14T15:25:13.419Z,50.40
2018-07-14T15:27:42.529Z,48.70
2018-07-14T15:30:11.711Z,49.30
2018-07-14T15:32:40.810Z,51.10
2018-07-14T15:35:09.851Z,49.70
2018-07-14T15:37:39.236Z,50.50
2018-07-14T15:42:37.091Z,52.40
2018-07-14T15:45:06.586Z,49.70
2018-07-14T15:47:35.653Z,49.80
2018-07-14T15:50:04.879Z,51.00
2018-07-14T15:52:34.476Z,49.60
2018-07-14T15:55:03.644Z,51.00
2018-07-14T15:57:32.765Z,49.70
2018-07-14T16:00:02.055Z,51.00
2018-07-14T16:02:31.119Z,52.80
2018-07-14T16:05:00.525Z,52.10
2018-07-14T16:07:29.824Z,50.20
2018-07-14T16:09:58.884Z,49.20
2018-07-14T16:12:27.975Z,51.60
2018-07-14T16:14:57.253Z,49.00
2018-07-14T16:17:26.325Z,50.20
2018-07-14T16:19:55.425Z,50.50
2018-07-14T16:22:25.011Z,50.80
2018-07-14T16:24:54.418Z,50.20
2018-07-14T16:27:23.450Z,49.90
2018-07-14T16:29:52.958Z,49.40
2018-07-14T16:32:22.079Z,50.60
2018-07-14T16:34:51.167Z,51.30
2018-07-14T16:37:20.592Z,47.70
2018-07-14T16:42:19.251Z,48.30
2018-07-14T16:44:48.767Z,49.10
2018-07-14T16:47:17.864Z,47.70
2018-07-14T16:49:47.973Z,47.80
2018-07-14T16:52:17.245Z,48.00
2018-07-14T16:54:46.380Z,47.60
2018-07-14T16:57:15.652Z,47.50
2018-07-14T16:59:45.343Z,47.70
2018-07-14T17:02:14.486Z,47.70
2018-07-14T17:04:43.617Z,47.60
2018-07-14T17:07:13.208Z,48.20
2018-07-14T17:09:42.350Z,48.20
2018-07-14T17:12:11.440Z,48.90
2018-07-14T17:14:41.058Z,48.50
2018-07-14T17:17:10.574Z,48.30
2018-07-14T17:19:40.140Z,49.70
2018-07-14T17:22:09.806Z,49.80
2018-07-14T17:24:39.006Z,48.50
2018-07-14T17:27:08.933Z,49.40
2018-07-14T17:29:38.325Z,50.60
2018-07-14T17:32:07.425Z,49.60
2018-07-14T17:34:36.564Z,52.30
2018-07-14T17:37:05.815Z,52.60
2018-07-14T17:39:34.913Z,53.60
2018-07-14T17:42:04.073Z,52.00
2018-07-14T17:44:35.430Z,55.30
2018-07-14T17:47:04.580Z,55.70
2018-07-14T17:49:33.703Z,53.80
2018-07-14T17:52:03.443Z,55.40
2018-07-14T17:54:32.486Z,54.70
2018-07-14T17:57:01.598Z,54.20
2018-07-14T17:59:30.793Z,54.10
2018-07-14T18:01:59.935Z,53.40
2018-07-14T18:04:29.073Z,53.20
2018-07-14T18:06:58.292Z,53.80
2018-07-14T18:09:27.391Z,53.60
2018-07-14T18:11:56.826Z,54.20
2018-07-14T18:14:26.343Z,54.20
2018-07-14T18:16:55.489Z,53.10
2018-07-14T18:19:24.681Z,54.10
2018-07-14T18:21:55.038Z,55.00
2018-07-14T18:24:24.792Z,54.90
2018-07-14T18:26:53.998Z,54.50
2018-07-14T18:29:23.533Z,55.70
2018-07-14T18:31:52.694Z,56.40
2018-07-14T18:34:22.285Z,55.90
2018-07-14T18:39:21.137Z,56.80
2018-07-14T18:41:50.310Z,56.00
2018-07-14T18:44:19.400Z,56.50
2018-07-14T18:46:48.780Z,58.30
2018-07-14T18:49:17.865Z,57.70
2018-07-14T18:51:46.977Z,58.60
2018-07-14T18:54:16.404Z,59.00
2018-07-14T18:56:46.782Z,57.40
2018-07-14T18:59:15.875Z,57.20
2018-07-14T19:01:45.444Z,56.70
2018-07-14T19:04:14.510Z,60.50
2018-07-14T19:09:12.381Z,60.50
2018-07-14T19:11:41.426Z,59.70
2018-07-14T19:14:10.506Z,61.10
2018-07-14T19:16:40.134Z,59.90
2018-07-14T19:19:09.213Z,61.90
2018-07-14T19:21:38.318Z,63.90
2018-07-14T19:24:07.619Z,62.20
2018-07-14T19:26:36.737Z,61.70
2018-07-14T19:29:05.904Z,59.40
2018-07-14T19:31:35.182Z,62.10
2018-07-14T19:34:04.328Z,62.70
2018-07-14T19:36:33.443Z,63.10
2018-07-14T19:39:02.884Z,64.30
2018-07-14T19:41:32.015Z,64.40
2018-07-14T19:46:30.397Z,63.80
2018-07-14T19:48:59.893Z,63.60
2018-07-14T19:51:28.972Z,63.00
2018-07-14T19:53:58.333Z,64.20
2018-07-14T19:56:27.393Z,64.00
2018-07-14T19:58:56.457Z,64.00
2018-07-14T20:01:25.938Z,63.50
2018-07-14T20:03:55.058Z,62.70
2018-07-14T20:06:24.171Z,64.60
2018-07-14T20:08:53.487Z,64.00
2018-07-14T20:11:22.628Z,61.00
2018-07-14T20:13:51.845Z,60.20
2018-07-14T20:16:21.206Z,59.30
2018-07-14T20:18:50.314Z,59.10
2018-07-14T20:21:19.379Z,60.50
2018-07-14T20:23:48.646Z,59.70
2018-07-14T20:26:17.819Z,62.10
2018-07-14T20:28:46.931Z,64.80
2018-07-14T20:31:16.247Z,66.90
2018-07-14T20:33:45.791Z,68.00
2018-07-14T20:36:14.862Z,69.20
2018-07-14T20:38:44.141Z,68.00
2018-07-14T20:41:13.246Z,68.50
2018-07-14T20:43:42.355Z,68.60
2018-07-14T20:46:11.553Z,69.00
2018-07-14T20:48:40.654Z,66.90
2018-07-14T20:51:09.765Z,66.70
2018-07-14T20:53:39.163Z,66.20
2018-07-14T20:56:08.269Z,67.20
2018-07-14T20:58:37.385Z,67.50
2018-07-14T21:03:35.452Z,71.40
2018-07-14T21:06:05.264Z,68.50
2018-07-14T21:08:34.578Z,70.00
2018-07-14T21:16:01.498Z,70.00
2018-07-14T21:18:30.645Z,71.00
2018-07-14T21:20:59.792Z,71.30
2018-07-14T21:23:29.094Z,71.30
2018-07-14T21:25:58.230Z,71.30
2018-07-14T21:28:27.379Z,72.10
2018-07-14T21:30:56.532Z,76.70
2018-07-14T21:33:25.617Z,77.90
2018-07-14T21:35:54.955Z,78.30
2018-07-14T21:38:24.198Z,78.50
2018-07-14T21:40:53.323Z,77.60
2018-07-14T21:43:22.446Z,77.50
2018-07-14T21:45:51.713Z,77.10
2018-07-14T21:48:20.858Z,78.50
2018-07-14T21:50:50.080Z,80.20
2018-07-14T21:53:19.261Z,80.20
2018-07-14T21:55:48.396Z,80.90
2018-07-14T21:58:17.512Z,82.00
2018-07-14T22:03:21.454Z,77.50
2018-07-14T22:05:50.618Z,78.30
2018-07-14T22:08:19.778Z,78.40
2018-07-14T22:10:48.894Z,79.80
2018-07-14T22:13:18.472Z,81.00
2018-07-14T22:15:47.666Z,81.80
2018-07-14T22:18:16.748Z,82.10
2018-07-14T22:20:46.030Z,80.80
2018-07-14T22:23:15.163Z,80.90
2018-07-14T22:25:44.385Z,82.90
2018-07-14T22:28:13.584Z,81.80
2018-07-14T22:30:42.711Z,80.50
2018-07-14T22:35:40.610Z,80.60
2018-07-14T22:38:09.946Z,80.10
2018-07-14T22:40:39.086Z,81.20
2018-07-14T22:43:09.060Z,82.50
2018-07-14T22:45:38.160Z,83.80
2018-07-14T22:48:07.234Z,84.90
2018-07-14T22:50:36.784Z,85.90
2018-07-14T22:53:06.253Z,86.50
2018-07-14T22:55:35.346Z,87.80
2018-07-14T22:58:04.510Z,89.50
2018-07-14T23:00:33.628Z,90.20
2018-07-14T23:03:02.763Z,90.70
2018-07-14T23:05:32.210Z,91.20
2018-07-14T23:08:01.294Z,91.50
2018-07-14T23:15:27.833Z,92.90
2018-07-14T23:17:56.894Z,93.30
2018-07-14T23:20:26.085Z,93.60
2018-07-14T23:22:55.174Z,93.90
2018-07-14T23:27:53.174Z,94.40
2018-07-14T23:30:22.258Z,94.60
2018-07-14T23:32:51.386Z,94.90
2018-07-14T23:35:20.625Z,94.80
2018-07-14T23:37:49.637Z,94.60
2018-07-14T23:40:19.870Z,93.90
2018-07-14T23:42:49.274Z,94.00
2018-07-14T23:45:19.104Z,93.70
2018-07-14T23:47:48.171Z,94.00
2018-07-14T23:50:17.480Z,94.20
2018-07-14T23:52:47.598Z,94.30
2018-07-14T23:55:16.863Z,94.60
2018-07-14T23:57:46.608Z,94.90
